sensor_id;sensor_type;location;lat;lon;timestamp;P1;durP1;ratioP1;P2;durP2;ratioP2
6823;SDS011;58633;49.470;11.004;2023-09-12T00:01:08;11.00;;;9.50;;
6823;SDS011;58633;49.470;11.004;2023-09-12T00:03:34;11.80;;;9.55;;
6823;SDS011;58633;49.470;11.004;2023-09-12T00:06:01;10.38;;;9.18;;
6823;SDS011;58633;49.470;11.004;2023-09-12T00:08:27;13.07;;;10.00;;
6823;SDS011;58633;49.470;11.004;2023-09-12T00:13:28;11.55;;;9.48;;
6823;SDS011;58633;49.470;11.004;2023-09-12T00:15:55;13.43;;;9.68;;
6823;SDS011;58633;49.470;11.004;2023-09-12T00:18:20;11.15;;;9.15;;
6823;SDS011;58633;49.470;11.004;2023-09-12T00:20:46;11.80;;;9.30;;
6823;SDS011;58633;49.470;11.004;2023-09-12T00:23:11;13.15;;;9.13;;
6823;SDS011;58633;49.470;11.004;2023-09-12T00:25:37;13.98;;;9.23;;
6823;SDS011;58633;49.470;11.004;2023-09-12T00:28:02;15.32;;;8.98;;
6823;SDS011;58633;49.470;11.004;2023-09-12T00:30:28;12.60;;;9.30;;
6823;SDS011;58633;49.470;11.004;2023-09-12T00:32:54;14.93;;;9.40;;
6823;SDS011;58633;49.470;11.004;2023-09-12T00:35:19;13.05;;;9.88;;
6823;SDS011;58633;49.470;11.004;2023-09-12T00:37:45;11.50;;;8.98;;
6823;SDS011;58633;49.470;11.004;2023-09-12T00:40:10;12.70;;;9.70;;
6823;SDS011;58633;49.470;11.004;2023-09-12T00:42:36;12.10;;;9.35;;
6823;SDS011;58633;49.470;11.004;2023-09-12T00:45:01;13.20;;;9.73;;
6823;SDS011;58633;49.470;11.004;2023-09-12T00:47:27;11.93;;;9.60;;
6823;SDS011;58633;49.470;11.004;2023-09-12T00:49:54;11.60;;;9.55;;
6823;SDS011;58633;49.470;11.004;2023-09-12T00:52:21;14.85;;;9.60;;
6823;SDS011;58633;49.470;11.004;2023-09-12T00:54:49;11.35;;;9.23;;
6823;SDS011;58633;49.470;11.004;2023-09-12T00:57:16;11.27;;;9.00;;
6823;SDS011;58633;49.470;11.004;2023-09-12T00:59:41;12.02;;;9.63;;
6823;SDS011;58633;49.470;11.004;2023-09-12T01:02:08;12.63;;;9.93;;
6823;SDS011;58633;49.470;11.004;2023-09-12T01:04:34;15.82;;;10.02;;
6823;SDS011;58633;49.470;11.004;2023-09-12T01:07:02;16.38;;;10.20;;
6823;SDS011;58633;49.470;11.004;2023-09-12T01:09:28;16.45;;;9.65;;
6823;SDS011;58633;49.470;11.004;2023-09-12T01:11:54;13.18;;;10.13;;
6823;SDS011;58633;49.470;11.004;2023-09-12T01:14:20;10.55;;;9.13;;
6823;SDS011;58633;49.470;11.004;2023-09-12T01:16:45;10.52;;;9.27;;
6823;SDS011;58633;49.470;11.004;2023-09-12T01:19:11;10.15;;;9.15;;
6823;SDS011;58633;49.470;11.004;2023-09-12T01:22:03;9.88;;;8.75;;
6823;SDS011;58633;49.470;11.004;2023-09-12T01:25:13;11.80;;;8.27;;
6823;SDS011;58633;49.470;11.004;2023-09-12T01:27:51;14.55;;;9.15;;
6823;SDS011;58633;49.470;11.004;2023-09-12T01:30:20;10.65;;;8.88;;
6823;SDS011;58633;49.470;11.004;2023-09-12T01:32:46;12.23;;;9.25;;
6823;SDS011;58633;49.470;11.004;2023-09-12T01:35:13;11.90;;;9.32;;
6823;SDS011;58633;49.470;11.004;2023-09-12T01:37:38;10.40;;;9.05;;
6823;SDS011;58633;49.470;11.004;2023-09-12T01:40:06;11.48;;;8.98;;
6823;SDS011;58633;49.470;11.004;2023-09-12T01:42:36;11.45;;;9.80;;
6823;SDS011;58633;49.470;11.004;2023-09-12T01:45:06;12.07;;;9.05;;
6823;SDS011;58633;49.470;11.004;2023-09-12T01:47:35;12.23;;;9.10;;
6823;SDS011;58633;49.470;11.004;2023-09-12T01:50:02;10.30;;;9.27;;
6823;SDS011;58633;49.470;11.004;2023-09-12T01:52:30;14.93;;;9.82;;
6823;SDS011;58633;49.470;11.004;2023-09-12T01:54:56;11.65;;;9.48;;
6823;SDS011;58633;49.470;11.004;2023-09-12T01:57:23;10.70;;;9.25;;
6823;SDS011;58633;49.470;11.004;2023-09-12T01:59:49;11.30;;;9.35;;
6823;SDS011;58633;49.470;11.004;2023-09-12T02:02:15;12.70;;;9.07;;
6823;SDS011;58633;49.470;11.004;2023-09-12T02:04:41;9.98;;;8.90;;
6823;SDS011;58633;49.470;11.004;2023-09-12T02:07:11;14.43;;;9.50;;
6823;SDS011;58633;49.470;11.004;2023-09-12T02:09:37;10.27;;;9.15;;
6823;SDS011;58633;49.470;11.004;2023-09-12T02:12:02;11.45;;;9.20;;
6823;SDS011;58633;49.470;11.004;2023-09-12T02:14:28;14.30;;;9.50;;
6823;SDS011;58633;49.470;11.004;2023-09-12T02:16:54;11.43;;;9.65;;
6823;SDS011;58633;49.470;11.004;2023-09-12T02:19:19;16.02;;;11.13;;
6823;SDS011;58633;49.470;11.004;2023-09-12T02:21:45;11.77;;;10.13;;
6823;SDS011;58633;49.470;11.004;2023-09-12T02:24:10;17.67;;;10.27;;
6823;SDS011;58633;49.470;11.004;2023-09-12T02:26:36;13.25;;;11.18;;
6823;SDS011;58633;49.470;11.004;2023-09-12T02:29:02;13.35;;;10.90;;
6823;SDS011;58633;49.470;11.004;2023-09-12T02:31:30;15.93;;;10.88;;
6823;SDS011;58633;49.470;11.004;2023-09-12T02:33:56;16.80;;;10.75;;
6823;SDS011;58633;49.470;11.004;2023-09-12T02:36:21;12.98;;;10.00;;
6823;SDS011;58633;49.470;11.004;2023-09-12T02:38:47;12.38;;;9.45;;
6823;SDS011;58633;49.470;11.004;2023-09-12T02:41:12;19.38;;;10.07;;
6823;SDS011;58633;49.470;11.004;2023-09-12T02:43:38;13.65;;;10.95;;
6823;SDS011;58633;49.470;11.004;2023-09-12T02:46:03;13.93;;;10.45;;
6823;SDS011;58633;49.470;11.004;2023-09-12T02:48:29;14.02;;;10.15;;
6823;SDS011;58633;49.470;11.004;2023-09-12T02:50:54;12.18;;;9.88;;
6823;SDS011;58633;49.470;11.004;2023-09-12T02:53:20;14.50;;;10.95;;
6823;SDS011;58633;49.470;11.004;2023-09-12T02:55:45;13.63;;;9.68;;
6823;SDS011;58633;49.470;11.004;2023-09-12T02:58:12;14.93;;;10.00;;
6823;SDS011;58633;49.470;11.004;2023-09-12T03:00:38;16.23;;;10.45;;
6823;SDS011;58633;49.470;11.004;2023-09-12T03:03:05;13.38;;;10.38;;
6823;SDS011;58633;49.470;11.004;2023-09-12T03:05:31;13.70;;;10.52;;
6823;SDS011;58633;49.470;11.004;2023-09-12T03:07:56;14.48;;;9.82;;
6823;SDS011;58633;49.470;11.004;2023-09-12T03:10:21;14.88;;;10.30;;
6823;SDS011;58633;49.470;11.004;2023-09-12T03:12:47;12.10;;;10.02;;
6823;SDS011;58633;49.470;11.004;2023-09-12T03:15:12;16.30;;;9.90;;
6823;SDS011;58633;49.470;11.004;2023-09-12T03:17:38;16.70;;;10.73;;
6823;SDS011;58633;49.470;11.004;2023-09-12T03:20:04;14.68;;;10.05;;
6823;SDS011;58633;49.470;11.004;2023-09-12T03:22:33;13.68;;;10.00;;
6823;SDS011;58633;49.470;11.004;2023-09-12T03:25:02;15.38;;;10.70;;
6823;SDS011;58633;49.470;11.004;2023-09-12T03:27:28;15.02;;;10.23;;
6823;SDS011;58633;49.470;11.004;2023-09-12T03:29:54;13.98;;;10.60;;
6823;SDS011;58633;49.470;11.004;2023-09-12T03:32:19;13.32;;;10.18;;
6823;SDS011;58633;49.470;11.004;2023-09-12T03:34:45;13.98;;;10.63;;
6823;SDS011;58633;49.470;11.004;2023-09-12T03:37:10;13.77;;;10.85;;
6823;SDS011;58633;49.470;11.004;2023-09-12T03:39:36;14.68;;;11.13;;
6823;SDS011;58633;49.470;11.004;2023-09-12T03:42:01;16.88;;;11.20;;
6823;SDS011;58633;49.470;11.004;2023-09-12T03:44:27;14.70;;;10.88;;
6823;SDS011;58633;49.470;11.004;2023-09-12T03:46:53;15.88;;;10.75;;
6823;SDS011;58633;49.470;11.004;2023-09-12T03:49:18;17.42;;;10.00;;
6823;SDS011;58633;49.470;11.004;2023-09-12T03:51:44;16.33;;;10.20;;
6823;SDS011;58633;49.470;11.004;2023-09-12T03:54:09;12.27;;;10.52;;
6823;SDS011;58633;49.470;11.004;2023-09-12T03:56:35;17.13;;;10.38;;
6823;SDS011;58633;49.470;11.004;2023-09-12T03:59:00;14.02;;;9.80;;
6823;SDS011;58633;49.470;11.004;2023-09-12T04:01:26;13.35;;;10.30;;
6823;SDS011;58633;49.470;11.004;2023-09-12T04:03:52;15.20;;;10.80;;
6823;SDS011;58633;49.470;11.004;2023-09-12T04:06:17;16.10;;;10.43;;
6823;SDS011;58633;49.470;11.004;2023-09-12T04:08:43;14.35;;;10.45;;
6823;SDS011;58633;49.470;11.004;2023-09-12T04:11:08;15.20;;;10.00;;
6823;SDS011;58633;49.470;11.004;2023-09-12T04:13:35;14.05;;;9.70;;
6823;SDS011;58633;49.470;11.004;2023-09-12T04:16:01;14.15;;;10.55;;
6823;SDS011;58633;49.470;11.004;2023-09-12T04:18:26;14.55;;;9.82;;
6823;SDS011;58633;49.470;11.004;2023-09-12T04:20:52;18.70;;;10.38;;
6823;SDS011;58633;49.470;11.004;2023-09-12T04:23:17;14.88;;;10.73;;
6823;SDS011;58633;49.470;11.004;2023-09-12T04:25:45;14.15;;;9.85;;
6823;SDS011;58633;49.470;11.004;2023-09-12T04:28:11;15.88;;;9.98;;
6823;SDS011;58633;49.470;11.004;2023-09-12T04:30:37;13.95;;;10.20;;
6823;SDS011;58633;49.470;11.004;2023-09-12T04:33:04;14.40;;;10.50;;
6823;SDS011;58633;49.470;11.004;2023-09-12T04:35:32;15.50;;;10.90;;
6823;SDS011;58633;49.470;11.004;2023-09-12T04:37:58;12.73;;;10.35;;
6823;SDS011;58633;49.470;11.004;2023-09-12T04:40:24;13.38;;;10.45;;
6823;SDS011;58633;49.470;11.004;2023-09-12T04:42:49;14.77;;;9.68;;
6823;SDS011;58633;49.470;11.004;2023-09-12T04:45:15;15.50;;;11.30;;
6823;SDS011;58633;49.470;11.004;2023-09-12T04:47:40;16.13;;;10.18;;
6823;SDS011;58633;49.470;11.004;2023-09-12T04:50:06;17.63;;;10.40;;
6823;SDS011;58633;49.470;11.004;2023-09-12T04:52:31;16.85;;;10.15;;
6823;SDS011;58633;49.470;11.004;2023-09-12T04:54:57;20.15;;;11.23;;
6823;SDS011;58633;49.470;11.004;2023-09-12T04:57:23;21.27;;;10.30;;
6823;SDS011;58633;49.470;11.004;2023-09-12T04:59:48;13.90;;;9.50;;
6823;SDS011;58633;49.470;11.004;2023-09-12T05:02:14;15.73;;;10.43;;
6823;SDS011;58633;49.470;11.004;2023-09-12T05:04:40;17.65;;;9.95;;
6823;SDS011;58633;49.470;11.004;2023-09-12T05:07:06;13.60;;;9.85;;
6823;SDS011;58633;49.470;11.004;2023-09-12T05:09:31;13.50;;;9.88;;
6823;SDS011;58633;49.470;11.004;2023-09-12T05:11:57;15.10;;;10.23;;
6823;SDS011;58633;49.470;11.004;2023-09-12T05:14:22;16.35;;;10.23;;
6823;SDS011;58633;49.470;11.004;2023-09-12T05:16:48;17.30;;;10.23;;
6823;SDS011;58633;49.470;11.004;2023-09-12T05:19:13;19.08;;;10.95;;
6823;SDS011;58633;49.470;11.004;2023-09-12T05:21:39;18.23;;;11.10;;
6823;SDS011;58633;49.470;11.004;2023-09-12T05:24:04;18.40;;;10.48;;
6823;SDS011;58633;49.470;11.004;2023-09-12T05:26:30;17.85;;;9.82;;
6823;SDS011;58633;49.470;11.004;2023-09-12T05:28:56;17.08;;;10.20;;
6823;SDS011;58633;49.470;11.004;2023-09-12T05:31:21;21.55;;;9.93;;
6823;SDS011;58633;49.470;11.004;2023-09-12T05:33:47;16.08;;;10.13;;
6823;SDS011;58633;49.470;11.004;2023-09-12T05:36:13;17.90;;;10.95;;
6823;SDS011;58633;49.470;11.004;2023-09-12T05:38:39;16.50;;;10.60;;
6823;SDS011;58633;49.470;11.004;2023-09-12T05:41:04;13.73;;;10.10;;
6823;SDS011;58633;49.470;11.004;2023-09-12T05:43:30;14.52;;;10.20;;
6823;SDS011;58633;49.470;11.004;2023-09-12T05:45:56;17.30;;;10.20;;
6823;SDS011;58633;49.470;11.004;2023-09-12T05:48:23;18.65;;;11.32;;
6823;SDS011;58633;49.470;11.004;2023-09-12T05:50:48;17.45;;;11.95;;
6823;SDS011;58633;49.470;11.004;2023-09-12T05:53:14;19.77;;;10.70;;
6823;SDS011;58633;49.470;11.004;2023-09-12T05:55:39;16.60;;;10.27;;
6823;SDS011;58633;49.470;11.004;2023-09-12T05:58:05;18.30;;;11.18;;
6823;SDS011;58633;49.470;11.004;2023-09-12T06:00:31;15.15;;;10.32;;
6823;SDS011;58633;49.470;11.004;2023-09-12T06:02:57;17.60;;;10.13;;
6823;SDS011;58633;49.470;11.004;2023-09-12T06:05:23;16.77;;;10.90;;
6823;SDS011;58633;49.470;11.004;2023-09-12T06:07:48;18.08;;;10.88;;
6823;SDS011;58633;49.470;11.004;2023-09-12T06:10:14;16.10;;;10.98;;
6823;SDS011;58633;49.470;11.004;2023-09-12T06:12:39;17.17;;;10.63;;
6823;SDS011;58633;49.470;11.004;2023-09-12T06:15:05;18.52;;;9.95;;
6823;SDS011;58633;49.470;11.004;2023-09-12T06:17:31;16.75;;;10.23;;
6823;SDS011;58633;49.470;11.004;2023-09-12T06:19:57;17.38;;;10.60;;
6823;SDS011;58633;49.470;11.004;2023-09-12T06:22:22;16.38;;;10.68;;
6823;SDS011;58633;49.470;11.004;2023-09-12T06:24:48;16.13;;;11.05;;
6823;SDS011;58633;49.470;11.004;2023-09-12T06:27:15;19.42;;;11.35;;
6823;SDS011;58633;49.470;11.004;2023-09-12T06:29:44;16.77;;;10.23;;
6823;SDS011;58633;49.470;11.004;2023-09-12T06:32:10;18.00;;;10.50;;
6823;SDS011;58633;49.470;11.004;2023-09-12T06:34:36;15.32;;;10.65;;
6823;SDS011;58633;49.470;11.004;2023-09-12T06:37:01;16.70;;;10.32;;
6823;SDS011;58633;49.470;11.004;2023-09-12T06:39:27;19.48;;;10.82;;
6823;SDS011;58633;49.470;11.004;2023-09-12T06:41:52;20.63;;;10.73;;
6823;SDS011;58633;49.470;11.004;2023-09-12T06:44:18;19.42;;;10.68;;
6823;SDS011;58633;49.470;11.004;2023-09-12T06:46:43;18.98;;;10.55;;
6823;SDS011;58633;49.470;11.004;2023-09-12T06:49:09;21.70;;;11.15;;
6823;SDS011;58633;49.470;11.004;2023-09-12T06:51:34;18.25;;;10.50;;
6823;SDS011;58633;49.470;11.004;2023-09-12T06:54:00;19.38;;;11.13;;
6823;SDS011;58633;49.470;11.004;2023-09-12T06:56:25;16.30;;;10.50;;
6823;SDS011;58633;49.470;11.004;2023-09-12T06:58:52;18.45;;;11.13;;
6823;SDS011;58633;49.470;11.004;2023-09-12T07:01:19;17.05;;;10.95;;
6823;SDS011;58633;49.470;11.004;2023-09-12T07:03:45;17.90;;;11.40;;
6823;SDS011;58633;49.470;11.004;2023-09-12T07:06:11;22.77;;;10.50;;
6823;SDS011;58633;49.470;11.004;2023-09-12T07:08:37;16.55;;;10.23;;
6823;SDS011;58633;49.470;11.004;2023-09-12T07:11:04;19.25;;;10.35;;
6823;SDS011;58633;49.470;11.004;2023-09-12T07:13:31;18.25;;;10.70;;
6823;SDS011;58633;49.470;11.004;2023-09-12T07:15:57;13.80;;;9.77;;
6823;SDS011;58633;49.470;11.004;2023-09-12T07:18:23;23.63;;;10.43;;
6823;SDS011;58633;49.470;11.004;2023-09-12T07:20:59;15.80;;;10.20;;
6823;SDS011;58633;49.470;11.004;2023-09-12T07:23:25;21.98;;;10.50;;
6823;SDS011;58633;49.470;11.004;2023-09-12T07:25:50;19.58;;;10.50;;
6823;SDS011;58633;49.470;11.004;2023-09-12T07:28:16;23.42;;;10.60;;
6823;SDS011;58633;49.470;11.004;2023-09-12T07:30:45;16.75;;;10.88;;
6823;SDS011;58633;49.470;11.004;2023-09-12T07:33:11;16.08;;;10.48;;
6823;SDS011;58633;49.470;11.004;2023-09-12T07:35:36;18.02;;;10.00;;
6823;SDS011;58633;49.470;11.004;2023-09-12T07:38:02;18.77;;;10.55;;
6823;SDS011;58633;49.470;11.004;2023-09-12T07:40:28;23.00;;;11.27;;
6823;SDS011;58633;49.470;11.004;2023-09-12T07:42:54;17.90;;;11.43;;
6823;SDS011;58633;49.470;11.004;2023-09-12T07:45:20;20.05;;;11.30;;
6823;SDS011;58633;49.470;11.004;2023-09-12T07:47:45;19.88;;;11.10;;
6823;SDS011;58633;49.470;11.004;2023-09-12T07:50:11;18.98;;;11.43;;
6823;SDS011;58633;49.470;11.004;2023-09-12T07:52:36;25.42;;;11.40;;
6823;SDS011;58633;49.470;11.004;2023-09-12T07:55:02;24.10;;;11.10;;
6823;SDS011;58633;49.470;11.004;2023-09-12T07:57:29;17.63;;;10.95;;
6823;SDS011;58633;49.470;11.004;2023-09-12T07:59:55;20.83;;;10.55;;
6823;SDS011;58633;49.470;11.004;2023-09-12T08:02:21;17.48;;;10.85;;
6823;SDS011;58633;49.470;11.004;2023-09-12T08:04:48;20.63;;;11.15;;
6823;SDS011;58633;49.470;11.004;2023-09-12T08:07:14;14.95;;;9.93;;
6823;SDS011;58633;49.470;11.004;2023-09-12T08:09:50;13.48;;;9.75;;
6823;SDS011;58633;49.470;11.004;2023-09-12T08:12:17;15.63;;;9.98;;
6823;SDS011;58633;49.470;11.004;2023-09-12T08:14:47;19.05;;;10.23;;
6823;SDS011;58633;49.470;11.004;2023-09-12T08:17:12;14.68;;;9.40;;
6823;SDS011;58633;49.470;11.004;2023-09-12T08:19:39;16.42;;;9.45;;
6823;SDS011;58633;49.470;11.004;2023-09-12T08:22:05;14.00;;;8.57;;
6823;SDS011;58633;49.470;11.004;2023-09-12T08:24:32;14.32;;;8.48;;
6823;SDS011;58633;49.470;11.004;2023-09-12T08:26:58;13.52;;;8.68;;
6823;SDS011;58633;49.470;11.004;2023-09-12T08:29:24;20.60;;;8.60;;
6823;SDS011;58633;49.470;11.004;2023-09-12T08:31:49;12.80;;;8.13;;
6823;SDS011;58633;49.470;11.004;2023-09-12T08:34:15;15.18;;;8.32;;
6823;SDS011;58633;49.470;11.004;2023-09-12T08:36:40;16.40;;;8.75;;
6823;SDS011;58633;49.470;11.004;2023-09-12T08:39:06;15.32;;;8.98;;
6823;SDS011;58633;49.470;11.004;2023-09-12T08:41:36;15.88;;;8.20;;
6823;SDS011;58633;49.470;11.004;2023-09-12T08:44:01;12.10;;;8.00;;
6823;SDS011;58633;49.470;11.004;2023-09-12T08:46:30;14.73;;;8.27;;
6823;SDS011;58633;49.470;11.004;2023-09-12T08:48:56;10.82;;;7.75;;
6823;SDS011;58633;49.470;11.004;2023-09-12T08:51:25;16.80;;;9.05;;
6823;SDS011;58633;49.470;11.004;2023-09-12T08:53:51;14.48;;;8.38;;
6823;SDS011;58633;49.470;11.004;2023-09-12T08:56:17;15.05;;;8.40;;
6823;SDS011;58633;49.470;11.004;2023-09-12T08:58:44;15.25;;;7.80;;
6823;SDS011;58633;49.470;11.004;2023-09-12T09:01:10;13.95;;;7.78;;
6823;SDS011;58633;49.470;11.004;2023-09-12T09:03:39;13.35;;;8.57;;
6823;SDS011;58633;49.470;11.004;2023-09-12T09:06:08;11.20;;;7.63;;
6823;SDS011;58633;49.470;11.004;2023-09-12T09:08:35;15.55;;;8.05;;
6823;SDS011;58633;49.470;11.004;2023-09-12T09:11:01;13.63;;;8.50;;
6823;SDS011;58633;49.470;11.004;2023-09-12T09:13:28;12.68;;;7.88;;
6823;SDS011;58633;49.470;11.004;2023-09-12T09:16:09;13.38;;;8.48;;
6823;SDS011;58633;49.470;11.004;2023-09-12T09:18:57;14.77;;;7.68;;
6823;SDS011;58633;49.470;11.004;2023-09-12T09:21:29;14.82;;;8.13;;
6823;SDS011;58633;49.470;11.004;2023-09-12T09:23:59;14.88;;;8.00;;
6823;SDS011;58633;49.470;11.004;2023-09-12T09:26:29;15.43;;;7.82;;
6823;SDS011;58633;49.470;11.004;2023-09-12T09:29:15;11.05;;;8.05;;
6823;SDS011;58633;49.470;11.004;2023-09-12T09:31:48;14.70;;;7.70;;
6823;SDS011;58633;49.470;11.004;2023-09-12T09:34:16;11.32;;;8.05;;
6823;SDS011;58633;49.470;11.004;2023-09-12T09:36:51;18.73;;;7.90;;
6823;SDS011;58633;49.470;11.004;2023-09-12T09:39:19;13.07;;;8.13;;
6823;SDS011;58633;49.470;11.004;2023-09-12T09:41:49;16.02;;;8.10;;
6823;SDS011;58633;49.470;11.004;2023-09-12T09:44:16;12.20;;;8.07;;
6823;SDS011;58633;49.470;11.004;2023-09-12T09:46:43;9.05;;;7.88;;
6823;SDS011;58633;49.470;11.004;2023-09-12T09:49:15;14.32;;;7.82;;
6823;SDS011;58633;49.470;11.004;2023-09-12T09:51:42;10.15;;;7.55;;
6823;SDS011;58633;49.470;11.004;2023-09-12T09:54:09;14.90;;;7.95;;
6823;SDS011;58633;49.470;11.004;2023-09-12T09:56:48;15.60;;;7.85;;
6823;SDS011;58633;49.470;11.004;2023-09-12T09:59:18;15.80;;;8.70;;
6823;SDS011;58633;49.470;11.004;2023-09-12T10:01:46;11.32;;;7.93;;
6823;SDS011;58633;49.470;11.004;2023-09-12T10:04:14;16.20;;;8.20;;
6823;SDS011;58633;49.470;11.004;2023-09-12T10:06:40;11.55;;;7.97;;
6823;SDS011;58633;49.470;11.004;2023-09-12T10:09:11;10.93;;;7.75;;
6823;SDS011;58633;49.470;11.004;2023-09-12T10:11:39;13.30;;;8.02;;
6823;SDS011;58633;49.470;11.004;2023-09-12T10:14:07;12.90;;;8.05;;
6823;SDS011;58633;49.470;11.004;2023-09-12T10:16:34;11.02;;;7.70;;
6823;SDS011;58633;49.470;11.004;2023-09-12T10:19:20;17.58;;;8.07;;
6823;SDS011;58633;49.470;11.004;2023-09-12T10:24:17;8.80;;;7.90;;
6823;SDS011;58633;49.470;11.004;2023-09-12T10:26:46;13.43;;;7.60;;
6823;SDS011;58633;49.470;11.004;2023-09-12T10:29:14;9.63;;;8.07;;
6823;SDS011;58633;49.470;11.004;2023-09-12T10:31:40;11.23;;;7.68;;
6823;SDS011;58633;49.470;11.004;2023-09-12T10:34:06;12.38;;;7.95;;
6823;SDS011;58633;49.470;11.004;2023-09-12T10:36:36;11.57;;;8.60;;
6823;SDS011;58633;49.470;11.004;2023-09-12T10:39:04;13.25;;;8.90;;
6823;SDS011;58633;49.470;11.004;2023-09-12T10:41:32;9.00;;;8.05;;
6823;SDS011;58633;49.470;11.004;2023-09-12T10:44:01;11.70;;;8.35;;
6823;SDS011;58633;49.470;11.004;2023-09-12T10:46:34;14.88;;;8.27;;
6823;SDS011;58633;49.470;11.004;2023-09-12T10:49:06;17.60;;;9.35;;
6823;SDS011;58633;49.470;11.004;2023-09-12T10:51:42;15.85;;;8.35;;
6823;SDS011;58633;49.470;11.004;2023-09-12T10:54:12;8.38;;;7.53;;
6823;SDS011;58633;49.470;11.004;2023-09-12T10:56:39;9.70;;;7.95;;
6823;SDS011;58633;49.470;11.004;2023-09-12T11:01:32;11.35;;;8.45;;
6823;SDS011;58633;49.470;11.004;2023-09-12T11:06:43;10.02;;;8.35;;
6823;SDS011;58633;49.470;11.004;2023-09-12T11:09:16;9.50;;;7.75;;
6823;SDS011;58633;49.470;11.004;2023-09-12T11:11:45;11.95;;;8.10;;
6823;SDS011;58633;49.470;11.004;2023-09-12T11:14:11;12.32;;;8.02;;
6823;SDS011;58633;49.470;11.004;2023-09-12T11:16:37;11.85;;;8.05;;
6823;SDS011;58633;49.470;11.004;2023-09-12T11:19:22;11.30;;;7.93;;
6823;SDS011;58633;49.470;11.004;2023-09-12T11:21:51;14.52;;;8.32;;
6823;SDS011;58633;49.470;11.004;2023-09-12T11:24:18;9.00;;;7.88;;
6823;SDS011;58633;49.470;11.004;2023-09-12T11:27:01;11.85;;;8.23;;
6823;SDS011;58633;49.470;11.004;2023-09-12T11:29:37;10.02;;;7.30;;
6823;SDS011;58633;49.470;11.004;2023-09-12T11:32:04;10.48;;;7.43;;
6823;SDS011;58633;49.470;11.004;2023-09-12T11:34:37;10.70;;;7.60;;
6823;SDS011;58633;49.470;11.004;2023-09-12T11:37:07;11.32;;;7.30;;
6823;SDS011;58633;49.470;11.004;2023-09-12T11:39:33;9.68;;;7.55;;
6823;SDS011;58633;49.470;11.004;2023-09-12T11:42:01;11.07;;;7.68;;
6823;SDS011;58633;49.470;11.004;2023-09-12T11:44:28;11.30;;;7.68;;
6823;SDS011;58633;49.470;11.004;2023-09-12T11:46:56;9.75;;;6.97;;
6823;SDS011;58633;49.470;11.004;2023-09-12T11:49:28;8.50;;;7.20;;
6823;SDS011;58633;49.470;11.004;2023-09-12T11:52:01;9.35;;;7.80;;
6823;SDS011;58633;49.470;11.004;2023-09-12T11:54:28;11.82;;;7.40;;
6823;SDS011;58633;49.470;11.004;2023-09-12T11:56:54;10.10;;;7.53;;
6823;SDS011;58633;49.470;11.004;2023-09-12T11:59:24;12.18;;;7.53;;
6823;SDS011;58633;49.470;11.004;2023-09-12T12:01:51;7.80;;;7.00;;
6823;SDS011;58633;49.470;11.004;2023-09-12T12:04:17;8.10;;;7.00;;
6823;SDS011;58633;49.470;11.004;2023-09-12T12:06:46;9.80;;;6.70;;
6823;SDS011;58633;49.470;11.004;2023-09-12T12:09:11;10.25;;;7.40;;
6823;SDS011;58633;49.470;11.004;2023-09-12T12:11:38;10.18;;;6.88;;
6823;SDS011;58633;49.470;11.004;2023-09-12T12:16:37;8.98;;;7.40;;
6823;SDS011;58633;49.470;11.004;2023-09-12T12:19:02;11.63;;;7.10;;
6823;SDS011;58633;49.470;11.004;2023-09-12T12:21:28;10.73;;;6.97;;
6823;SDS011;58633;49.470;11.004;2023-09-12T12:23:57;9.32;;;7.10;;
6823;SDS011;58633;49.470;11.004;2023-09-12T12:26:26;8.38;;;7.00;;
6823;SDS011;58633;49.470;11.004;2023-09-12T12:28:52;10.57;;;7.10;;
6823;SDS011;58633;49.470;11.004;2023-09-12T12:31:18;8.23;;;7.25;;
6823;SDS011;58633;49.470;11.004;2023-09-12T12:33:48;11.60;;;7.22;;
6823;SDS011;58633;49.470;11.004;2023-09-12T12:36:14;11.68;;;6.70;;
6823;SDS011;58633;49.470;11.004;2023-09-12T12:38:39;8.68;;;6.60;;
6823;SDS011;58633;49.470;11.004;2023-09-12T12:41:08;9.55;;;6.47;;
6823;SDS011;58633;49.470;11.004;2023-09-12T12:43:34;6.88;;;6.00;;
6823;SDS011;58633;49.470;11.004;2023-09-12T12:46:00;13.88;;;7.20;;
6823;SDS011;58633;49.470;11.004;2023-09-12T12:48:35;9.80;;;6.65;;
6823;SDS011;58633;49.470;11.004;2023-09-12T12:51:12;6.97;;;6.25;;
6823;SDS011;58633;49.470;11.004;2023-09-12T12:53:44;8.48;;;5.93;;
6823;SDS011;58633;49.470;11.004;2023-09-12T12:56:17;8.52;;;6.40;;
6823;SDS011;58633;49.470;11.004;2023-09-12T12:58:45;8.13;;;6.38;;
6823;SDS011;58633;49.470;11.004;2023-09-12T13:01:12;10.52;;;5.88;;
6823;SDS011;58633;49.470;11.004;2023-09-12T13:03:37;19.30;;;6.07;;
6823;SDS011;58633;49.470;11.004;2023-09-12T13:06:03;7.93;;;6.78;;
6823;SDS011;58633;49.470;11.004;2023-09-12T13:08:28;8.80;;;6.70;;
6823;SDS011;58633;49.470;11.004;2023-09-12T13:10:54;7.40;;;5.82;;
6823;SDS011;58633;49.470;11.004;2023-09-12T13:13:20;9.50;;;6.90;;
6823;SDS011;58633;49.470;11.004;2023-09-12T13:15:46;8.18;;;6.20;;
6823;SDS011;58633;49.470;11.004;2023-09-12T13:18:11;7.07;;;6.38;;
6823;SDS011;58633;49.470;11.004;2023-09-12T13:20:37;7.85;;;6.10;;
6823;SDS011;58633;49.470;11.004;2023-09-12T13:23:02;8.63;;;6.05;;
6823;SDS011;58633;49.470;11.004;2023-09-12T13:25:28;6.95;;;5.60;;
6823;SDS011;58633;49.470;11.004;2023-09-12T13:27:53;6.50;;;5.75;;
6823;SDS011;58633;49.470;11.004;2023-09-12T13:30:19;7.55;;;5.28;;
6823;SDS011;58633;49.470;11.004;2023-09-12T13:32:44;7.28;;;6.15;;
6823;SDS011;58633;49.470;11.004;2023-09-12T13:35:11;7.43;;;5.72;;
6823;SDS011;58633;49.470;11.004;2023-09-12T13:37:36;7.97;;;5.75;;
6823;SDS011;58633;49.470;11.004;2023-09-12T13:40:02;8.02;;;5.80;;
6823;SDS011;58633;49.470;11.004;2023-09-12T13:42:28;10.43;;;5.97;;
6823;SDS011;58633;49.470;11.004;2023-09-12T13:44:56;6.63;;;5.75;;
6823;SDS011;58633;49.470;11.004;2023-09-12T13:47:21;10.02;;;5.97;;
6823;SDS011;58633;49.470;11.004;2023-09-12T13:49:48;8.70;;;6.00;;
6823;SDS011;58633;49.470;11.004;2023-09-12T13:52:14;8.45;;;5.30;;
6823;SDS011;58633;49.470;11.004;2023-09-12T13:54:40;7.15;;;5.75;;
6823;SDS011;58633;49.470;11.004;2023-09-12T13:57:05;6.78;;;5.20;;
6823;SDS011;58633;49.470;11.004;2023-09-12T13:59:31;7.22;;;5.65;;
6823;SDS011;58633;49.470;11.004;2023-09-12T14:01:56;8.90;;;5.47;;
6823;SDS011;58633;49.470;11.004;2023-09-12T14:04:22;10.85;;;6.13;;
6823;SDS011;58633;49.470;11.004;2023-09-12T14:06:47;7.97;;;5.72;;
6823;SDS011;58633;49.470;11.004;2023-09-12T14:09:12;5.60;;;5.10;;
6823;SDS011;58633;49.470;11.004;2023-09-12T14:11:38;8.02;;;5.45;;
6823;SDS011;58633;49.470;11.004;2023-09-12T14:14:04;10.70;;;5.10;;
6823;SDS011;58633;49.470;11.004;2023-09-12T14:16:30;7.25;;;5.00;;
6823;SDS011;58633;49.470;11.004;2023-09-12T14:18:55;5.75;;;5.13;;
6823;SDS011;58633;49.470;11.004;2023-09-12T14:21:21;6.70;;;5.30;;
6823;SDS011;58633;49.470;11.004;2023-09-12T14:23:46;9.25;;;5.20;;
6823;SDS011;58633;49.470;11.004;2023-09-12T14:26:12;6.68;;;4.70;;
6823;SDS011;58633;49.470;11.004;2023-09-12T14:28:37;7.72;;;5.07;;
6823;SDS011;58633;49.470;11.004;2023-09-12T14:31:03;7.20;;;4.75;;
6823;SDS011;58633;49.470;11.004;2023-09-12T14:33:30;8.02;;;5.07;;
6823;SDS011;58633;49.470;11.004;2023-09-12T14:35:55;5.30;;;4.80;;
6823;SDS011;58633;49.470;11.004;2023-09-12T14:38:21;6.85;;;4.60;;
6823;SDS011;58633;49.470;11.004;2023-09-12T14:40:46;8.48;;;4.63;;
6823;SDS011;58633;49.470;11.004;2023-09-12T14:43:12;8.10;;;5.00;;
6823;SDS011;58633;49.470;11.004;2023-09-12T14:45:38;6.03;;;4.65;;